Time;durP1;ratioP1;P1;durP2;ratioP2;P2;SDS_P1;SDS_P2;PMS_P1;PMS_P2;Temp;Humidity;BMP_temperature;BMP_pressure;BME280_temperature;BME280_humidity;BME280_pressure;Samples;Min_cycle;Max_cycle;Signal;HPM_P1;HPM_P2
2022/04/29 00:02:00;;;;;;;5.97;5.10;;;12.30;38.60;;;;;;4932236;29;20493;-78
2022/04/29 00:04:26;;;;;;;8.15;5.90;;;12.30;38.70;;;;;;4934211;29;20579;-78
2022/04/29 00:06:52;;;;;;;8.32;5.55;;;12.30;39.40;;;;;;4920560;29;20038;-78
2022/04/29 00:09:18;;;;;;;6.03;5.50;;;12.30;38.90;;;;;;4934124;29;20036;-79
2022/04/29 00:11:46;;;;;;;8.07;6.00;;;12.20;38.70;;;;;;4933929;29;20559;-79
2022/04/29 00:14:12;;;;;;;6.78;5.25;;;12.20;38.80;;;;;;4935594;29;20036;-78
2022/04/29 00:16:38;;;;;;;7.38;5.65;;;12.20;38.90;;;;;;4930773;29;20032;-79
2022/04/29 00:19:04;;;;;;;8.43;5.95;;;12.20;39.00;;;;;;4951419;29;20132;-79
2022/04/29 00:21:30;;;;;;;8.82;5.65;;;12.10;38.90;;;;;;4953229;28;20012;-78
2022/04/29 00:23:56;;;;;;;6.68;5.78;;;12.20;39.10;;;;;;4961259;29;20149;-78
2022/04/29 00:26:22;;;;;;;6.80;6.07;;;12.20;39.20;;;;;;4953374;29;20047;-80
2022/04/29 00:28:48;;;;;;;11.32;6.78;;;12.10;39.10;;;;;;4938947;29;20036;-78
2022/04/29 00:31:14;;;;;;;8.32;6.80;;;12.10;39.20;;;;;;4914890;29;20074;-78
2022/04/29 00:33:40;;;;;;;6.70;5.93;;;12.10;39.20;;;;;;4934175;29;20047;-78
2022/04/29 00:36:07;;;;;;;8.40;5.97;;;12.00;39.10;;;;;;4932531;29;20035;-78
2022/04/29 00:38:33;;;;;;;8.13;6.07;;;12.00;39.20;;;;;;4931485;29;20098;-79
2022/04/29 00:40:59;;;;;;;9.80;6.47;;;12.00;39.20;;;;;;4932685;29;20123;-77
2022/04/29 00:43:25;;;;;;;6.63;5.97;;;12.00;39.30;;;;;;4931701;29;20028;-78
2022/04/29 00:45:51;;;;;;;15.68;6.88;;;12.00;39.40;;;;;;4922362;29;20035;-77
2022/04/29 00:48:18;;;;;;;7.55;6.47;;;11.90;39.30;;;;;;4932866;29;20043;-78
2022/04/29 00:50:44;;;;;;;7.82;6.13;;;11.90;39.40;;;;;;4930791;29;20035;-77
2022/04/29 00:53:12;;;;;;;7.32;6.10;;;11.90;39.50;;;;;;4923189;29;20044;-77
2022/04/29 00:55:44;;;;;;;6.75;6.00;;;11.90;39.60;;;;;;4926942;29;20032;-79
2022/04/29 00:58:25;;;;;;;8.30;6.40;;;11.80;39.50;;;;;;4926613;29;20360;-78
2022/04/29 01:00:51;;;;;;;7.00;6.30;;;11.80;39.60;;;;;;4954547;28;20091;-80
2022/04/29 01:03:17;;;;;;;9.63;6.70;;;11.70;39.40;;;;;;4955701;29;20020;-81
2022/04/29 01:05:43;;;;;;;9.63;7.20;;;11.70;40.10;;;;;;4951071;29;20088;-80
2022/04/29 01:08:10;;;;;;;7.60;6.68;;;11.70;39.60;;;;;;4945704;29;20024;-79
2022/04/29 01:10:37;;;;;;;8.60;7.20;;;11.60;39.50;;;;;;4955090;29;20060;-80
2022/04/29 01:13:04;;;;;;;8.43;6.82;;;11.60;39.60;;;;;;4955202;29;20036;-80
2022/04/29 01:15:31;;;;;;;7.55;6.72;;;11.60;39.70;;;;;;4945685;29;20020;-79
2022/04/29 01:18:01;;;;;;;8.38;7.50;;;11.50;39.60;;;;;;4931720;29;20020;-81
2022/04/29 01:20:30;;;;;;;7.70;6.82;;;11.50;40.30;;;;;;4942525;29;20023;-80
2022/04/29 01:23:04;;;;;;;8.27;7.22;;;11.50;39.80;;;;;;4958119;29;20097;-79
2022/04/29 01:25:30;;;;;;;9.13;7.20;;;11.40;39.60;;;;;;4929185;29;20039;-81
2022/04/29 01:27:56;;;;;;;10.45;7.78;;;11.40;39.70;;;;;;4933683;29;20046;-80
2022/04/29 01:30:23;;;;;;;7.75;7.05;;;11.40;39.80;;;;;;4924432;29;20379;-80
2022/04/29 01:32:50;;;;;;;9.30;7.18;;;11.40;39.90;;;;;;4928113;29;20046;-80
2022/04/29 01:35:17;;;;;;;8.85;7.28;;;11.30;39.80;;;;;;4924777;29;20032;-80
2022/04/29 01:37:43;;;;;;;8.18;7.30;;;11.30;39.90;;;;;;4926858;29;20119;-80
2022/04/29 01:40:11;;;;;;;9.30;6.85;;;11.30;40.00;;;;;;4915715;29;20565;-79
2022/04/29 01:42:38;;;;;;;8.90;6.85;;;11.30;40.10;;;;;;4918775;29;20048;-79
2022/04/29 01:45:04;;;;;;;8.05;7.15;;;11.30;40.10;;;;;;4930738;29;20024;-77
2022/04/29 01:47:40;;;;;;;11.90;8.00;;;11.20;40.00;;;;;;4931559;29;20056;-79
2022/04/29 01:50:20;;;;;;;8.30;7.45;;;11.20;40.10;;;;;;4925964;29;20032;-78
2022/04/29 01:52:47;;;;;;;8.20;7.32;;;11.20;40.10;;;;;;4925343;29;20508;-79
2022/04/29 01:55:13;;;;;;;8.63;7.10;;;11.10;40.00;;;;;;4923689;29;20047;-78
2022/04/29 01:57:41;;;;;;;12.93;7.88;;;11.10;40.10;;;;;;4930916;29;20039;-79
2022/04/29 02:00:10;;;;;;;11.65;8.15;;;11.10;40.20;;;;;;4930962;29;20075;-78
2022/04/29 02:02:46;;;;;;;9.10;8.18;;;11.10;40.30;;;;;;4898645;29;20036;-79
2022/04/29 02:05:14;;;;;;;12.02;7.55;;;11.00;40.80;;;;;;4923857;29;20034;-79
2022/04/29 02:07:43;;;;;;;9.15;7.85;;;11.00;40.30;;;;;;4932630;29;20036;-79
2022/04/29 02:10:10;;;;;;;8.32;7.50;;;10.90;40.20;;;;;;4909932;29;20252;-79
2022/04/29 02:12:36;;;;;;;7.70;6.97;;;10.90;40.30;;;;;;4912666;29;20040;-78
2022/04/29 02:15:21;;;;;;;8.50;6.47;;;10.90;40.40;;;;;;4929785;29;20039;-78
2022/04/29 02:17:49;;;;;;;9.68;8.38;;;10.90;40.50;;;;;;4931319;29;20036;-78
2022/04/29 02:20:15;;;;;;;10.02;8.05;;;10.80;40.40;;;;;;4932108;29;20031;-78
2022/04/29 02:22:41;;;;;;;9.20;7.50;;;10.80;40.50;;;;;;4921287;29;20038;-77
2022/04/29 02:25:07;;;;;;;9.75;8.15;;;10.80;40.60;;;;;;4915309;29;20032;-77
2022/04/29 02:27:35;;;;;;;9.63;7.25;;;10.80;40.60;;;;;;4918157;29;20059;-77
2022/04/29 02:30:04;;;;;;;12.38;7.80;;;10.70;40.60;;;;;;4930104;29;20138;-77
2022/04/29 02:32:31;;;;;;;10.38;8.00;;;10.70;40.60;;;;;;4929995;29;20071;-78
2022/04/29 02:34:58;;;;;;;10.90;7.95;;;10.70;40.60;;;;;;4934621;29;20523;-78
2022/04/29 02:37:24;;;;;;;10.52;7.90;;;10.60;40.60;;;;;;4924167;29;20024;-78
2022/04/29 02:39:50;;;;;;;8.20;7.20;;;10.60;40.70;;;;;;4916371;29;20062;-78
2022/04/29 02:42:16;;;;;;;11.82;7.90;;;10.60;40.80;;;;;;4920760;29;20063;-78
2022/04/29 02:44:43;;;;;;;9.02;8.18;;;10.50;40.70;;;;;;4930786;29;20031;-78
2022/04/29 02:47:10;;;;;;;9.00;8.05;;;10.50;40.70;;;;;;4923599;29;20202;-78
2022/04/29 02:49:42;;;;;;;9.15;8.25;;;10.50;40.90;;;;;;4934023;29;20027;-78
2022/04/29 02:52:09;;;;;;;9.85;8.48;;;10.50;41.00;;;;;;4938102;29;20292;-78
2022/04/29 02:54:35;;;;;;;10.50;8.52;;;10.40;40.90;;;;;;4930656;29;20035;-78
2022/04/29 02:57:05;;;;;;;10.85;8.63;;;10.40;41.00;;;;;;4930184;29;20101;-78
2022/04/29 02:59:35;;;;;;;9.25;8.25;;;10.40;41.00;;;;;;4930557;29;20035;-77
2022/04/29 03:02:01;;;;;;;13.55;8.68;;;10.30;40.90;;;;;;4918247;29;20392;-78
2022/04/29 03:04:27;;;;;;;11.63;8.55;;;10.30;41.00;;;;;;4930963;29;20039;-78
2022/04/29 03:06:53;;;;;;;11.18;9.30;;;10.20;40.90;;;;;;4930029;29;20122;-78
2022/04/29 03:09:20;;;;;;;10.10;8.35;;;10.20;41.00;;;;;;4923438;29;20050;-78
2022/04/29 03:11:48;;;;;;;10.65;7.63;;;10.10;41.00;;;;;;4929680;29;20035;-78
2022/04/29 03:14:15;;;;;;;11.32;8.00;;;10.10;41.00;;;;;;4929618;29;20038;-77
2022/04/29 03:16:41;;;;;;;10.75;9.65;;;10.10;41.10;;;;;;4916758;29;20028;-78
2022/04/29 03:19:08;;;;;;;10.30;9.10;;;10.00;41.00;;;;;;4914557;29;20091;-77
2022/04/29 03:21:35;;;;;;;10.57;8.27;;;10.00;41.10;;;;;;4930794;29;20034;-78
2022/04/29 03:24:03;;;;;;;9.80;8.80;;;10.00;41.20;;;;;;4923114;29;20332;-77
2022/04/29 03:26:30;;;;;;;11.50;8.10;;;10.00;41.20;;;;;;4912874;29;20147;-78
2022/04/29 03:28:56;;;;;;;15.02;9.15;;;9.90;41.10;;;;;;4930145;29;20063;-78
2022/04/29 03:31:22;;;;;;;9.77;8.55;;;9.90;41.20;;;;;;4930220;29;20082;-78
2022/04/29 03:34:08;;;;;;;10.00;8.18;;;9.90;41.30;;;;;;4927641;28;20150;-78
2022/04/29 03:36:34;;;;;;;11.65;9.82;;;9.80;41.10;;;;;;4948776;28;20036;-77
2022/04/29 03:39:00;;;;;;;9.07;8.25;;;9.80;41.20;;;;;;4940693;29;20047;-78
2022/04/29 03:41:31;;;;;;;11.73;8.68;;;9.80;41.90;;;;;;4936024;29;20097;-79
2022/04/29 03:44:00;;;;;;;9.80;8.80;;;9.70;41.20;;;;;;4933930;29;20432;-79
2022/04/29 03:46:31;;;;;;;10.63;9.35;;;9.70;41.30;;;;;;4917087;29;20052;-79
2022/04/29 03:51:58;;;;;;;13.20;9.20;;;9.70;41.40;;;;;;4931520;29;20039;-78
2022/04/29 03:54:24;;;;;;;10.40;8.93;;;9.60;41.30;;;;;;4927641;29;20095;-78
2022/04/29 03:56:53;;;;;;;11.85;8.90;;;9.60;41.40;;;;;;4903596;29;20074;-79
2022/04/29 03:59:20;;;;;;;10.05;8.65;;;9.50;41.20;;;;;;4910094;29;20047;-79
2022/04/29 04:01:49;;;;;;;10.30;9.15;;;9.50;41.30;;;;;;4913212;29;20028;-79
2022/04/29 04:04:15;;;;;;;11.13;8.98;;;9.50;41.40;;;;;;4948986;29;20520;-79
2022/04/29 04:06:50;;;;;;;11.57;9.05;;;9.50;41.50;;;;;;4932729;29;20031;-79
2022/04/29 04:09:23;;;;;;;10.55;8.30;;;9.40;41.40;;;;;;4916712;29;20144;-79
2022/04/29 04:11:51;;;;;;;13.82;10.00;;;9.40;41.50;;;;;;4931111;29;20028;-79
2022/04/29 04:14:37;;;;;;;11.75;8.75;;;9.40;41.50;;;;;;4926055;29;20036;-79
2022/04/29 04:17:04;;;;;;;11.82;8.43;;;9.40;41.60;;;;;;4931314;29;20376;-78
2022/04/29 04:19:30;;;;;;;9.82;8.77;;;9.30;41.40;;;;;;4921766;29;20048;-79
2022/04/29 04:21:56;;;;;;;10.38;9.32;;;9.30;41.50;;;;;;4932065;29;20032;-78
2022/04/29 04:24:22;;;;;;;13.00;9.60;;;9.30;42.20;;;;;;4939073;29;20031;-78
2022/04/29 04:26:48;;;;;;;9.68;8.63;;;9.30;41.70;;;;;;4931866;29;20031;-78
2022/04/29 04:29:18;;;;;;;13.05;9.00;;;9.30;41.80;;;;;;4931419;29;20066;-78
2022/04/29 04:31:47;;;;;;;10.40;8.45;;;9.20;41.60;;;;;;4920096;29;20034;-79
2022/04/29 04:36:58;;;;;;;9.70;8.80;;;9.20;41.80;;;;;;4918562;29;20250;-79
2022/04/29 04:39:24;;;;;;;13.05;9.20;;;9.20;41.80;;;;;;4927769;29;20468;-80
2022/04/29 04:41:55;;;;;;;11.38;8.55;;;9.10;41.70;;;;;;4931810;29;20122;-80
2022/04/29 04:44:32;;;;;;;10.68;8.82;;;9.10;41.80;;;;;;4928153;29;20088;-79
2022/04/29 04:46:58;;;;;;;9.80;7.80;;;9.10;41.90;;;;;;4921984;29;20052;-80
2022/04/29 04:49:47;;;;;;;12.68;8.48;;;9.10;42.00;;;;;;4919972;29;20063;-80
2022/04/29 04:52:19;;;;;;;10.43;8.32;;;9.00;41.80;;;;;;4930343;29;20039;-80
2022/04/29 04:54:46;;;;;;;11.77;8.57;;;9.00;41.90;;;;;;4931072;29;20094;-79
2022/04/29 04:57:12;;;;;;;10.95;8.43;;;9.00;42.00;;;;;;4907868;29;20130;-79
2022/04/29 04:59:38;;;;;;;9.48;8.43;;;9.00;42.10;;;;;;4925625;29;20027;-79
2022/04/29 05:02:04;;;;;;;12.05;9.05;;;8.90;42.00;;;;;;4920135;29;20036;-79
2022/04/29 05:05:08;;;;;;;;;;;9.00;42.20;;;;;;4927704;29;20023;-78
2022/04/29 05:07:50;;;;;;;10.77;8.20;;;9.00;42.10;;;;;;4919366;29;20425;-79
2022/04/29 05:10:18;;;;;;;13.20;8.75;;;9.00;41.90;;;;;;4923262;29;20436;-79
2022/04/29 05:12:46;;;;;;;9.43;7.72;;;9.00;42.00;;;;;;4923333;29;20047;-80
2022/04/29 05:15:27;;;;;;;9.55;8.02;;;9.00;42.20;;;;;;4919868;29;20040;-80
2022/04/29 05:17:53;;;;;;;9.43;7.60;;;9.00;42.20;;;;;;4924921;29;20380;-79
2022/04/29 05:20:30;;;;;;;9.80;8.20;;;9.00;42.30;;;;;;4919203;29;20034;-81
2022/04/29 05:22:57;;;;;;;10.85;8.25;;;9.00;42.30;;;;;;4918063;29;20086;-89
2022/04/29 05:25:23;;;;;;;9.82;8.30;;;9.00;42.40;;;;;;4924857;29;20031;-87
2022/04/29 05:27:52;;;;;;;9.57;8.35;;;9.00;42.40;;;;;;4926579;29;20072;-85
2022/04/29 05:30:37;;;;;;;9.43;7.80;;;9.00;42.40;;;;;;4926351;29;20107;-82
2022/04/29 05:33:21;;;;;;;10.00;8.38;;;9.10;42.60;;;;;;4925462;29;20138;-83
2022/04/29 05:36:08;;;;;;;10.00;8.10;;;9.10;42.60;;;;;;4927081;29;20027;-82
2022/04/29 05:42:14;;;;;;;9.73;7.85;;;9.20;42.80;;;;;;4945356;28;20027;-83
2022/04/29 05:44:40;;;;;;;8.38;7.50;;;9.20;42.80;;;;;;4914600;29;20042;-89
2022/04/29 05:47:07;;;;;;;9.38;7.93;;;9.20;42.80;;;;;;4923452;29;20087;-83
2022/04/29 05:49:33;;;;;;;10.30;7.95;;;9.30;43.10;;;;;;4927025;29;20051;-84
2022/04/29 05:52:03;;;;;;;9.93;7.75;;;9.30;43.10;;;;;;4923466;29;20449;-82
2022/04/29 05:54:32;;;;;;;9.40;7.88;;;9.30;43.10;;;;;;4929794;29;20051;-86
2022/04/29 05:57:02;;;;;;;8.50;6.72;;;9.40;43.30;;;;;;4930179;29;20248;-83
2022/04/29 05:59:29;;;;;;;11.57;7.82;;;9.40;43.30;;;;;;4923183;29;20503;-83
2022/04/29 06:01:58;;;;;;;11.90;8.25;;;9.50;43.50;;;;;;4929068;29;20032;-86
2022/04/29 06:04:35;;;;;;;10.82;7.25;;;9.60;43.60;;;;;;4920582;29;20040;-83
2022/04/29 06:07:02;;;;;;;10.15;7.50;;;9.70;43.70;;;;;;4922621;29;20118;-93
2022/04/29 06:09:28;;;;;;;11.45;7.90;;;9.80;43.90;;;;;;4924111;29;20050;-80
2022/04/29 06:11:56;;;;;;;13.15;8.52;;;9.90;43.90;;;;;;4926738;29;20028;-79
2022/04/29 06:14:28;;;;;;;8.95;7.65;;;10.00;44.00;;;;;;4926996;29;20056;-89
2022/04/29 06:16:59;;;;;;;9.00;7.60;;;10.10;44.00;;;;;;4918996;29;20028;-84
2022/04/29 06:19:44;;;;;;;13.02;7.28;;;10.30;44.30;;;;;;4929227;29;20570;-81
2022/04/29 06:22:45;;;;;;;10.20;7.53;;;10.50;44.30;;;;;;4921214;29;20044;-84
2022/04/29 06:25:18;;;;;;;8.77;7.00;;;10.80;44.50;;;;;;4928696;29;20031;-82
2022/04/29 06:27:45;;;;;;;9.18;6.93;;;10.90;44.20;;;;;;4928590;29;20032;-83
2022/04/29 06:30:12;;;;;;;7.97;6.97;;;11.10;44.40;;;;;;4935645;28;20047;-87
2022/04/29 06:33:10;;;;;;;8.73;6.95;;;11.30;44.60;;;;;;4949144;29;20051;-84
2022/04/29 06:35:44;;;;;;;8.05;6.53;;;11.50;44.40;;;;;;4943180;29;20095;-82
2022/04/29 06:38:12;;;;;;;8.15;7.10;;;11.70;44.50;;;;;;4935408;29;20022;-81
2022/04/29 06:40:58;;;;;;;9.98;7.60;;;12.00;44.80;;;;;;4928666;29;20270;-82
2022/04/29 06:43:48;;;;;;;9.57;7.82;;;12.20;44.70;;;;;;4926662;29;20035;-82
2022/04/29 06:46:33;;;;;;;10.95;7.13;;;12.60;45.00;;;;;;4939321;29;20078;-83
2022/04/29 06:49:18;;;;;;;7.68;6.93;;;13.00;45.10;;;;;;4930041;29;20063;-83
2022/04/29 06:52:02;;;;;;;7.00;6.10;;;13.60;45.00;;;;;;4927140;29;20035;-80
2022/04/29 06:54:35;;;;;;;10.40;6.22;;;14.20;45.50;;;;;;4923734;29;20495;-82
2022/04/29 06:57:09;;;;;;;6.43;5.82;;;14.90;45.10;;;;;;4915408;29;20028;-80
2022/04/29 06:59:36;;;;;;;10.25;6.88;;;15.40;45.00;;;;;;4919270;29;20138;-81
2022/04/29 07:02:02;;;;;;;7.05;6.32;;;15.90;45.10;;;;;;4919995;29;20032;-84
2022/04/29 07:04:28;;;;;;;9.27;6.80;;;16.30;45.10;;;;;;4923352;29;20274;-80
2022/04/29 07:06:56;;;;;;;9.88;6.88;;;16.60;45.00;;;;;;4924107;29;20438;-92
2022/04/29 07:09:23;;;;;;;7.82;6.05;;;16.90;44.80;;;;;;4914910;29;20092;-79
2022/04/29 07:12:13;;;;;;;6.32;5.72;;;17.20;44.80;;;;;;4913565;29;20483;-81
2022/04/29 07:14:52;;;;;;;10.90;6.85;;;17.20;45.20;;;;;;4922871;29;20039;-82
2022/04/29 07:17:20;;;;;;;9.20;6.07;;;17.20;44.70;;;;;;4911928;29;20145;-84
2022/04/29 07:19:50;;;;;;;9.57;6.28;;;17.10;44.50;;;;;;4929329;29;20484;-79
2022/04/29 07:22:19;;;;;;;7.70;5.57;;;17.10;44.70;;;;;;4928839;29;20078;-79
2022/04/29 07:24:47;;;;;;;7.35;6.47;;;17.00;44.60;;;;;;4923221;29;20075;-89
2022/04/29 07:27:13;;;;;;;9.63;6.45;;;17.10;44.80;;;;;;4923655;29;20192;-84
2022/04/29 07:29:40;;;;;;;10.80;7.47;;;17.10;44.60;;;;;;4921413;29;20036;-91
2022/04/29 07:32:12;;;;;;;10.73;6.17;;;17.20;44.80;;;;;;4924159;29;20051;-85
2022/04/29 07:43:48;;;;;;;10.02;6.43;;;17.00;44.50;;;;;;4929592;29;20032;-84
2022/04/29 07:46:14;;;;;;;7.03;6.32;;;17.00;44.60;;;;;;4913747;29;20053;-85
2022/04/29 07:48:59;;;;;;;7.20;5.85;;;17.10;44.70;;;;;;4934830;29;20034;-85
2022/04/29 07:51:24;;;;;;;8.63;5.90;;;17.20;44.80;;;;;;4933404;29;20036;-85
2022/04/29 07:53:50;;;;;;;8.23;6.65;;;17.20;44.60;;;;;;4929670;29;20063;-86
2022/04/29 07:56:17;;;;;;;8.73;6.25;;;17.30;44.70;;;;;;4928232;29;20039;-86
2022/04/29 07:58:44;;;;;;;8.40;6.93;;;17.40;44.70;;;;;;4944058;29;20063;-86
2022/04/29 08:01:10;;;;;;;10.40;7.38;;;17.60;44.80;;;;;;4937747;29;20039;-86
2022/04/29 08:03:39;;;;;;;11.20;7.88;;;17.70;44.50;;;;;;4951901;29;20074;-84
2022/04/29 08:06:14;;;;;;;12.40;7.35;;;17.90;44.50;;;;;;4921719;29;20036;-88
2022/04/29 08:08:40;;;;;;;8.68;6.78;;;18.30;44.40;;;;;;4918325;29;20040;-91
2022/04/29 08:11:10;;;;;;;9.80;7.10;;;18.70;44.20;;;;;;4933437;29;20024;-81
2022/04/29 08:13:56;;;;;;;9.98;7.68;;;19.00;43.80;;;;;;4935704;29;20047;-82
2022/04/29 08:16:51;;;;;;;14.48;8.60;;;19.20;43.70;;;;;;4931596;29;20052;-86
2022/04/29 08:19:28;;;;;;;12.05;8.57;;;19.10;43.50;;;;;;4925788;29;20090;-84
2022/04/29 08:22:23;;;;;;;10.02;7.70;;;19.00;43.70;;;;;;4919829;29;20067;-85
2022/04/29 08:24:51;;;;;;;9.98;8.15;;;18.80;43.80;;;;;;4926364;29;20047;-82
2022/04/29 08:27:17;;;;;;;10.50;7.60;;;18.70;43.90;;;;;;4920773;29;20040;-87
2022/04/29 08:29:43;;;;;;;9.05;7.45;;;18.60;43.90;;;;;;4928274;29;20468;-85
2022/04/29 08:32:10;;;;;;;11.85;8.27;;;18.50;43.90;;;;;;4903810;29;20047;-83
2022/04/29 08:34:39;;;;;;;9.52;8.48;;;18.50;44.00;;;;;;4926752;29;20175;-82
2022/04/29 08:37:05;;;;;;;13.93;7.93;;;18.40;43.90;;;;;;4929798;29;20106;-83
2022/04/29 08:39:37;;;;;;;13.10;8.77;;;18.40;44.00;;;;;;4917783;29;20360;-87
2022/04/29 08:42:05;;;;;;;9.45;7.43;;;18.40;44.00;;;;;;4912421;29;20511;-79
2022/04/29 08:44:33;;;;;;;11.05;8.75;;;18.40;44.00;;;;;;4931437;29;20068;-84
2022/04/29 08:47:23;;;;;;;10.57;8.38;;;18.40;44.00;;;;;;4920231;29;20376;-87
2022/04/29 08:50:01;;;;;;;18.85;12.15;;;18.40;43.90;;;;;;4923429;29;20051;-84
2022/04/29 08:52:28;;;;;;;15.38;11.75;;;18.50;43.90;;;;;;4927229;29;20570;-84
2022/04/29 09:00:24;;;;;;;20.77;14.40;;;18.20;42.80;;;;;;4932429;29;20474;-85
2022/04/29 09:02:50;;;;;;;19.27;13.80;;;18.10;42.60;;;;;;4904226;29;20046;-86
2022/04/29 09:05:16;;;;;;;20.67;15.10;;;18.10;42.50;;;;;;4930586;29;20188;-84
2022/04/29 09:08:00;;;;;;;15.70;12.55;;;18.00;42.30;;;;;;4930669;29;20036;-87
2022/04/29 09:10:34;;;;;;;18.25;12.50;;;17.90;42.10;;;;;;4926918;29;20044;-81
2022/04/29 09:13:09;;;;;;;16.65;13.23;;;17.80;42.10;;;;;;4929869;29;20082;-82
2022/04/29 09:15:36;;;;;;;16.90;13.38;;;17.70;42.00;;;;;;4925506;29;20062;-80
2022/04/29 09:18:03;;;;;;;15.52;13.35;;;17.80;42.20;;;;;;4929060;29;20621;-80
2022/04/29 09:20:28;;;;;;;22.27;15.07;;;17.70;42.00;;;;;;4929891;29;20039;-82
2022/04/29 09:22:54;;;;;;;18.10;12.85;;;17.70;42.10;;;;;;4927416;29;20523;-91
2022/04/29 09:25:39;;;;;;;20.85;14.75;;;17.80;42.10;;;;;;4931128;29;20059;-84
2022/04/29 09:28:38;;;;;;;14.63;12.88;;;17.90;42.10;;;;;;4914784;29;20122;-78
2022/04/29 09:31:16;;;;;;;20.85;13.65;;;18.00;42.00;;;;;;4917209;29;20488;-79
2022/04/29 09:33:58;;;;;;;13.85;12.35;;;18.20;42.10;;;;;;4929913;29;20439;-79
2022/04/29 09:36:45;;;;;;;19.02;12.82;;;18.40;42.20;;;;;;4921866;29;20028;-80
2022/04/29 09:42:05;;;;;;;16.60;12.02;;;18.60;42.10;;;;;;4932498;29;20020;-81
2022/04/29 09:44:33;;;;;;;18.52;11.05;;;18.80;42.00;;;;;;4952541;29;20043;-77
2022/04/29 09:47:21;;;;;;;13.73;11.02;;;19.00;42.10;;;;;;4948983;29;20054;-78
2022/04/29 09:49:59;;;;;;;20.73;12.02;;;19.10;41.90;;;;;;4957017;28;20091;-75
2022/04/29 09:52:31;;;;;;;15.63;12.05;;;19.20;41.90;;;;;;4953508;28;20055;-79
2022/04/29 09:55:14;;;;;;;18.27;12.80;;;19.30;42.00;;;;;;4953915;28;20043;-77
2022/04/29 09:57:52;;;;;;;17.67;12.13;;;19.40;41.80;;;;;;4953774;29;20043;-77
2022/04/29 10:00:19;;;;;;;14.85;10.93;;;19.50;41.70;;;;;;4948172;28;20024;-76
2022/04/29 10:02:49;;;;;;;19.23;12.25;;;19.60;41.70;;;;;;4953188;29;20074;-91
2022/04/29 10:05:16;;;;;;;13.27;11.30;;;19.70;41.60;;;;;;4939637;28;20103;-83
2022/04/29 10:07:43;;;;;;;13.88;10.88;;;19.80;41.50;;;;;;4922945;29;20100;-79
2022/04/29 10:10:10;;;;;;;14.90;10.70;;;19.70;41.10;;;;;;4931121;29;20227;-78
2022/04/29 10:12:36;;;;;;;13.80;12.02;;;19.60;40.90;;;;;;4929809;29;20050;-79
2022/04/29 10:15:37;;;;;;;12.85;11.65;;;19.50;40.80;;;;;;4927256;29;20055;-79
2022/04/29 10:21:36;;;;;;;14.50;12.02;;;19.10;40.60;;;;;;4944598;28;20022;-79
2022/04/29 10:24:03;;;;;;;16.63;12.07;;;19.00;40.60;;;;;;4943399;28;20024;-81
2022/04/29 10:26:30;;;;;;;16.73;12.45;;;18.90;40.40;;;;;;4944509;29;20024;-77
2022/04/29 10:28:57;;;;;;;15.90;11.75;;;18.70;40.10;;;;;;4948124;29;20107;-77
2022/04/29 10:31:23;;;;;;;17.50;12.77;;;18.60;40.00;;;;;;4941723;29;20031;-77
2022/04/29 10:33:50;;;;;;;13.30;11.55;;;18.70;40.20;;;;;;4915007;29;20058;-77
2022/04/29 10:36:22;;;;;;;15.55;12.48;;;18.70;40.10;;;;;;4915862;29;20148;-78
2022/04/29 10:38:48;;;;;;;15.73;12.00;;;18.80;40.10;;;;;;4926068;29;20083;-78
2022/04/29 10:41:23;;;;;;;15.20;10.07;;;18.90;40.20;;;;;;4937783;29;20377;-79
2022/04/29 10:43:55;;;;;;;13.68;10.90;;;19.10;40.60;;;;;;4933055;29;20040;-78
2022/04/29 10:46:31;;;;;;;15.45;10.60;;;19.40;40.80;;;;;;4923471;29;20099;-78
2022/04/29 10:49:33;;;;;;;12.90;9.95;;;19.70;41.20;;;;;;4930426;29;20035;-79
2022/04/29 10:52:26;;;;;;;14.10;9.68;;;19.90;41.20;;;;;;4922587;29;20039;-78
2022/04/29 10:54:59;;;;;;;11.68;9.52;;;20.10;41.40;;;;;;4900434;29;20036;-81
2022/04/29 10:57:41;;;;;;;9.90;9.00;;;20.20;41.50;;;;;;4911658;29;20259;-82
2022/04/29 11:00:16;;;;;;;13.70;9.35;;;20.40;41.50;;;;;;4928993;29;20062;-79
2022/04/29 11:02:46;;;;;;;9.40;7.38;;;20.50;41.50;;;;;;4923016;29;20035;-80
2022/04/29 11:05:38;;;;;;;10.65;8.00;;;20.60;41.50;;;;;;4931578;29;20522;-82
2022/04/29 11:08:10;;;;;;;12.88;8.95;;;20.80;41.60;;;;;;4929515;29;20511;-92
2022/04/29 11:10:53;;;;;;;14.70;10.70;;;20.90;41.60;;;;;;4928718;29;20482;-77
2022/04/29 11:13:26;;;;;;;14.68;11.35;;;20.80;40.70;;;;;;4924952;29;20060;-78
2022/04/29 11:16:12;;;;;;;20.70;10.57;;;20.60;40.50;;;;;;4929058;29;20039;-78
2022/04/29 11:19:21;;;;;;;12.93;11.07;;;20.50;40.10;;;;;;4925247;29;20042;-77
2022/04/29 11:24:49;;;;;;;13.13;10.65;;;20.10;39.60;;;;;;4936805;29;20124;-80
2022/04/29 11:27:36;;;;;;;12.40;9.75;;;20.00;39.70;;;;;;4909974;29;20456;-78
2022/04/29 11:30:05;;;;;;;14.98;10.02;;;20.00;39.60;;;;;;4910853;29;20040;-77
2022/04/29 11:32:42;;;;;;;14.30;9.85;;;19.90;39.30;;;;;;4926582;29;20103;-77
2022/04/29 11:35:08;;;;;;;15.63;10.27;;;19.90;39.20;;;;;;4929478;29;20083;-78
2022/04/29 11:37:35;;;;;;;14.35;10.52;;;19.80;38.90;;;;;;4928871;29;20036;-77
2022/04/29 11:40:05;;;;;;;12.23;9.13;;;19.90;39.00;;;;;;4920792;29;20132;-79
2022/04/29 11:42:31;;;;;;;12.90;10.13;;;20.10;39.10;;;;;;4928045;29;20031;-81
2022/04/29 11:45:05;;;;;;;13.55;10.50;;;20.20;39.10;;;;;;4932788;29;20453;-84
2022/04/29 11:47:32;;;;;;;11.40;9.23;;;20.20;38.70;;;;;;4913346;29;20063;-80
2022/04/29 11:50:01;;;;;;;14.00;9.52;;;20.30;38.90;;;;;;4931638;29;20146;-81
2022/04/29 11:52:30;;;;;;;11.73;9.10;;;20.30;38.70;;;;;;4917136;29;20039;-80
2022/04/29 11:55:05;;;;;;;11.30;8.40;;;20.30;38.60;;;;;;4924489;29;20032;-87
2022/04/29 11:57:42;;;;;;;11.20;8.73;;;20.30;38.50;;;;;;4926363;29;20079;-85
2022/04/29 12:00:09;;;;;;;10.45;8.60;;;20.40;38.50;;;;;;4909571;29;20492;-84
2022/04/29 12:02:46;;;;;;;15.00;9.85;;;20.60;38.70;;;;;;4929168;29;20039;-84
2022/04/29 12:05:14;;;;;;;11.70;8.40;;;20.70;38.60;;;;;;4909404;29;20054;-80
2022/04/29 12:07:46;;;;;;;13.05;9.10;;;20.70;38.40;;;;;;4927203;29;20032;-80
2022/04/29 12:10:19;;;;;;;12.25;9.18;;;20.70;38.30;;;;;;4909169;29;20044;-80
2022/04/29 12:12:49;;;;;;;11.52;8.23;;;20.70;38.30;;;;;;4928537;29;20115;-79
2022/04/29 12:15:20;;;;;;;14.07;9.55;;;20.60;38.10;;;;;;4928224;29;20028;-80
2022/04/29 12:17:48;;;;;;;12.50;8.65;;;20.60;37.90;;;;;;4913573;29;20032;-80
2022/04/29 12:20:19;;;;;;;11.57;9.27;;;20.60;37.90;;;;;;4918538;29;20036;-79
2022/04/29 12:22:48;;;;;;;12.52;8.85;;;20.70;37.90;;;;;;4919676;29;20030;-79
2022/04/29 12:25:29;;;;;;;10.13;8.15;;;20.80;38.00;;;;;;4922894;29;20103;-79
2022/04/29 12:28:21;;;;;;;10.55;9.13;;;20.80;37.70;;;;;;4928612;29;20395;-78
2022/04/29 12:36:53;;;;;;;11.05;8.82;;;21.10;37.90;;;;;;4924131;29;20035;-80
2022/04/29 12:39:25;;;;;;;10.32;8.75;;;21.20;37.90;;;;;;4913975;29;20040;-80
2022/04/29 12:41:59;;;;;;;9.95;8.80;;;21.40;37.90;;;;;;4930208;29;20031;-79
2022/04/29 12:47:31;;;;;;;13.57;9.88;;;21.40;37.50;;;;;;4931262;29;20067;-80
2022/04/29 12:50:29;;;;;;;9.98;9.00;;;21.30;37.40;;;;;;4931453;29;20303;-81
2022/04/29 12:53:08;;;;;;;12.20;9.32;;;21.20;37.00;;;;;;4931497;29;20126;-79
2022/04/29 12:55:44;;;;;;;16.38;9.65;;;21.10;37.20;;;;;;4927751;29;20357;-85
2022/04/29 12:58:24;;;;;;;10.02;8.75;;;21.10;37.20;;;;;;4930654;29;20153;-83
2022/04/29 13:00:56;;;;;;;10.00;8.35;;;21.00;37.10;;;;;;4930480;29;20503;-84
2022/04/29 13:03:27;;;;;;;11.63;10.05;;;20.90;37.00;;;;;;4932034;29;20032;-83
2022/04/29 13:06:29;;;;;;;11.38;8.55;;;20.90;37.10;;;;;;4919091;29;20032;-81
2022/04/29 13:08:56;;;;;;;10.70;8.88;;;20.90;37.10;;;;;;4931579;29;20580;-82
2022/04/29 13:11:23;;;;;;;11.15;8.40;;;21.00;37.30;;;;;;4926265;29;20126;-83
2022/04/29 13:13:51;;;;;;;13.05;9.18;;;21.00;37.20;;;;;;4931245;29;20206;-81
2022/04/29 13:16:19;;;;;;;9.65;8.65;;;21.00;37.20;;;;;;4914375;29;20055;-81
2022/04/29 13:18:46;;;;;;;11.32;8.13;;;21.00;37.20;;;;;;4917387;29;20123;-81
2022/04/29 13:21:14;;;;;;;12.73;9.05;;;21.10;37.40;;;;;;4926152;29;20035;-81
2022/04/29 13:23:45;;;;;;;9.10;8.10;;;21.10;37.40;;;;;;4912573;29;20130;-82
2022/04/29 13:26:18;;;;;;;13.27;9.02;;;21.10;37.50;;;;;;4914843;29;20446;-81
2022/04/29 13:28:44;;;;;;;11.35;9.00;;;21.00;37.40;;;;;;4931196;29;20063;-81
2022/04/29 13:31:10;;;;;;;13.70;9.43;;;20.90;37.40;;;;;;4929557;29;20035;-79
2022/04/29 13:33:36;;;;;;;16.20;9.30;;;20.90;37.50;;;;;;4928712;29;20047;-79
2022/04/29 13:36:03;;;;;;;14.82;9.43;;;20.90;37.50;;;;;;4922348;29;20495;-78
2022/04/29 13:38:29;;;;;;;10.73;9.48;;;20.90;37.60;;;;;;4930306;29;20423;-79
2022/04/29 13:40:57;;;;;;;10.55;8.75;;;20.90;37.50;;;;;;4926963;29;20115;-79
2022/04/29 13:43:25;;;;;;;13.73;9.68;;;21.00;37.60;;;;;;4917697;29;20142;-78
2022/04/29 13:45:52;;;;;;;10.70;8.43;;;21.10;37.70;;;;;;4919361;29;20055;-78